Time;durP1;ratioP1;P1;durP2;ratioP2;P2;SDS_P1;SDS_P2;PMS_P1;PMS_P2;Temp;Humidity;BMP_temperature;BMP_pressure;BME280_temperature;BME280_humidity;BME280_pressure;Samples;Min_cycle;Max_cycle;Signal;HPM_P1;HPM_P2
2021/12/09 00:01:13;;;;;;;42.50;40.30;;;;;;;20.10;40.28;99974.78;4959189;29;20031;-70
2021/12/09 00:03:40;;;;;;;41.97;39.78;;;;;;;20.09;40.02;99975.91;4958459;28;20086;-70
2021/12/09 00:06:07;;;;;;;43.35;40.92;;;;;;;20.08;40.16;99974.31;4958483;29;20371;-70
2021/12/09 00:08:33;;;;;;;42.75;40.55;;;;;;;20.07;40.20;99978.16;4958343;29;20053;-71
2021/12/09 00:11:02;;;;;;;44.60;42.17;;;;;;;20.06;40.04;99975.78;4958556;29;20090;-70
2021/12/09 00:13:28;;;;;;;42.58;40.38;;;;;;;20.05;40.18;99974.13;4958277;29;20034;-70
2021/12/09 00:15:54;;;;;;;44.35;42.05;;;;;;;20.04;40.22;99976.09;4958160;28;20079;-71
2021/12/09 00:18:19;;;;;;;44.15;41.83;;;;;;;20.04;40.31;99978.03;4958911;29;20325;-71
2021/12/09 00:20:45;;;;;;;42.35;40.13;;;;;;;20.03;40.23;99970.91;4958095;29;20468;-71
2021/12/09 00:23:11;;;;;;;42.58;40.17;;;;;;;20.01;40.18;99973.19;4958185;28;20161;-70
2021/12/09 00:25:38;;;;;;;42.30;40.20;;;;;;;20.00;40.11;99974.31;4958047;29;20023;-70
2021/12/09 00:28:04;;;;;;;44.75;42.35;;;;;;;19.99;40.26;99976.25;4957578;28;20440;-70
2021/12/09 00:30:31;;;;;;;43.90;41.60;;;;;;;19.98;40.12;99971.09;4957974;29;20062;-70
2021/12/09 00:32:57;;;;;;;44.45;41.95;;;;;;;19.97;40.14;99977.69;4958374;29;20058;-71
2021/12/09 00:35:28;;;;;;;43.10;40.92;;;;;;;19.96;40.02;99978.81;4958518;28;20031;-70
2021/12/09 00:37:59;;;;;;;45.47;43.20;;;;;;;19.94;39.89;99987.38;4958313;29;20137;-71
2021/12/09 00:40:25;;;;;;;45.05;42.75;;;;;;;19.93;39.78;99979.47;4958345;29;20030;-70
2021/12/09 00:42:50;;;;;;;44.13;41.63;;;;;;;19.93;40.08;99984.94;4957729;29;20023;-70
2021/12/09 00:45:16;;;;;;;43.13;41.03;;;;;;;19.92;40.17;99981.41;4957751;28;20027;-70
2021/12/09 00:47:42;;;;;;;42.90;40.55;;;;;;;19.92;40.00;99986.09;4957353;28;20038;-70
2021/12/09 00:50:08;;;;;;;42.60;40.50;;;;;;;19.89;40.10;99982.88;4957522;28;20117;-70
2021/12/09 00:52:34;;;;;;;45.05;42.72;;;;;;;19.89;39.94;99985.59;4940280;29;20035;-70
2021/12/09 00:55:00;;;;;;;44.75;42.35;;;;;;;19.89;39.97;99993.84;4957515;28;20024;-70
2021/12/09 00:57:25;;;;;;;44.67;42.22;;;;;;;19.87;40.00;99990.59;4939914;29;20047;-70
2021/12/09 00:59:51;;;;;;;43.70;41.55;;;;;;;19.86;39.79;99989.00;4957143;29;20027;-70
2021/12/09 01:02:17;;;;;;;43.03;40.92;;;;;;;19.86;39.83;99999.97;4957703;29;20349;-70
2021/12/09 01:04:44;;;;;;;44.00;41.80;;;;;;;19.84;39.92;99988.50;4957414;29;20042;-70
2021/12/09 01:07:10;;;;;;;43.38;41.17;;;;;;;19.84;40.15;99987.72;4958579;28;20035;-70
2021/12/09 01:09:35;;;;;;;43.97;41.78;;;;;;;19.82;39.83;99993.50;4957277;29;20045;-70
2021/12/09 01:12:01;;;;;;;46.45;43.97;;;;;;;19.82;39.74;99989.97;4957177;29;20024;-70
2021/12/09 01:14:27;;;;;;;43.58;41.17;;;;;;;19.81;40.11;99993.84;4957254;28;20058;-70
2021/12/09 01:16:52;;;;;;;43.28;41.08;;;;;;;19.79;39.85;99996.91;4956364;29;20038;-70
2021/12/09 01:19:18;;;;;;;45.08;42.88;;;;;;;19.79;39.96;99996.09;4956845;28;20512;-70
2021/12/09 01:21:43;;;;;;;45.33;43.03;;;;;;;19.78;39.98;99998.03;4957071;29;20050;-70
2021/12/09 01:24:09;;;;;;;45.70;43.40;;;;;;;19.77;39.90;99998.34;4957236;29;20065;-70
2021/12/09 01:26:35;;;;;;;44.70;42.30;;;;;;;19.77;39.99;100001.09;4955456;29;20028;-70
2021/12/09 01:29:02;;;;;;;45.60;43.30;;;;;;;19.76;39.87;100003.03;4956859;29;20031;-71
2021/12/09 01:31:33;;;;;;;44.13;41.92;;;;;;;19.75;39.79;100011.56;4957182;29;20031;-70
2021/12/09 01:34:02;;;;;;;46.70;44.30;;;;;;;19.74;40.05;99997.06;4956966;29;20027;-69
2021/12/09 01:36:28;;;;;;;43.30;41.08;;;;;;;19.74;39.71;99999.00;4957021;29;20061;-69
2021/12/09 01:38:54;;;;;;;43.50;41.22;;;;;;;19.72;39.87;100004.00;4956694;29;20027;-70
2021/12/09 01:41:19;;;;;;;43.65;41.53;;;;;;;19.72;39.76;99998.50;4956663;29;20043;-69
2021/12/09 01:43:45;;;;;;;43.33;41.03;;;;;;;19.70;39.93;100003.50;4956975;28;20033;-69
2021/12/09 01:46:14;;;;;;;45.78;43.30;;;;;;;19.70;39.69;100006.25;4956188;28;20034;-69
2021/12/09 01:48:42;;;;;;;44.30;41.97;;;;;;;19.68;39.89;100003.84;4956841;29;20034;-70
2021/12/09 01:51:08;;;;;;;46.20;43.83;;;;;;;19.67;39.72;100002.22;4956212;29;20031;-69
2021/12/09 01:53:34;;;;;;;45.22;41.83;;;;;;;19.66;40.03;100001.38;4956500;28;20081;-70
2021/12/09 01:56:02;;;;;;;44.85;42.47;;;;;;;19.65;39.86;100002.53;4956159;28;20059;-70
2021/12/09 01:58:28;;;;;;;43.00;40.75;;;;;;;19.65;39.89;99997.03;4956399;29;20031;-70
2021/12/09 02:00:53;;;;;;;44.17;41.88;;;;;;;19.65;39.44;99997.03;4955652;28;20030;-69
2021/12/09 02:03:19;;;;;;;43.45;41.25;;;;;;;19.64;39.90;99997.34;4956229;28;20026;-69
2021/12/09 02:05:44;;;;;;;43.63;41.30;;;;;;;19.62;39.53;99996.88;4956216;28;20027;-69
2021/12/09 02:08:13;;;;;;;46.45;43.90;;;;;;;19.62;39.39;99994.91;4956578;28;20039;-69
2021/12/09 02:10:39;;;;;;;44.58;42.28;;;;;;;19.61;39.89;99995.25;4956069;29;20086;-69
2021/12/09 02:13:05;;;;;;;45.97;43.67;;;;;;;19.60;39.74;99988.16;4956677;29;20034;-69
2021/12/09 02:15:31;;;;;;;45.50;43.28;;;;;;;19.59;39.93;99990.09;4956107;28;20106;-69
2021/12/09 02:17:58;;;;;;;44.38;42.10;;;;;;;19.58;39.68;99993.97;4956042;29;20113;-70
2021/12/09 02:20:32;;;;;;;45.75;43.45;;;;;;;19.58;39.89;99993.13;4955942;28;20031;-69
2021/12/09 02:22:58;;;;;;;44.92;42.47;;;;;;;19.56;39.77;99987.19;4955816;29;20030;-71
2021/12/09 02:25:23;;;;;;;45.03;42.72;;;;;;;19.56;39.97;99987.19;4955908;29;20027;-69
2021/12/09 02:27:49;;;;;;;43.22;41.15;;;;;;;19.55;39.78;99989.09;4955813;29;20042;-70
2021/12/09 02:30:15;;;;;;;44.03;41.75;;;;;;;19.54;39.92;99986.72;4956047;29;20027;-70
2021/12/09 02:32:41;;;;;;;44.65;42.45;;;;;;;19.54;39.76;99983.97;4955635;28;20031;-70
2021/12/09 02:35:07;;;;;;;44.67;42.42;;;;;;;19.51;39.74;99988.16;4955947;29;20476;-70
2021/12/09 02:37:33;;;;;;;44.65;42.38;;;;;;;19.51;39.85;99990.91;4955985;29;20038;-70
2021/12/09 02:39:58;;;;;;;45.08;42.72;;;;;;;19.51;40.04;99981.88;4955633;29;20035;-70
2021/12/09 02:42:24;;;;;;;43.65;41.55;;;;;;;19.51;39.65;99990.09;4955659;29;20561;-70
2021/12/09 02:44:51;;;;;;;44.22;42.08;;;;;;;19.49;39.80;99982.19;4955702;29;20031;-70
2021/12/09 02:47:16;;;;;;;44.33;41.85;;;;;;;19.49;39.93;99984.94;4955929;29;20059;-70
2021/12/09 02:49:41;;;;;;;43.67;41.47;;;;;;;19.47;39.81;99984.44;4956382;29;20027;-70
2021/12/09 02:52:07;;;;;;;44.78;42.25;;;;;;;19.48;39.65;99996.19;4955757;29;20105;-70
2021/12/09 02:54:34;;;;;;;43.97;41.78;;;;;;;19.46;39.70;99996.53;4955726;29;20471;-70
2021/12/09 02:57:04;;;;;;;43.75;41.42;;;;;;;19.45;39.88;99990.25;4955812;28;20055;-70
2021/12/09 02:59:31;;;;;;;42.40;40.30;;;;;;;19.44;40.00;100002.31;4955824;29;20027;-70
2021/12/09 03:01:59;;;;;;;41.97;39.57;;;;;;;19.44;39.97;99996.84;4955647;29;20066;-70
2021/12/09 03:04:47;;;;;;;42.17;40.05;;;;;;;19.44;39.77;100007.78;4955306;29;20039;-70
2021/12/09 03:07:23;;;;;;;41.17;39.08;;;;;;;19.44;39.74;100007.00;4955344;29;20355;-70
2021/12/09 03:09:54;;;;;;;40.75;38.75;;;;;;;19.43;39.67;100008.13;4955695;29;20106;-70
2021/12/09 03:12:24;;;;;;;41.33;39.33;;;;;;;19.42;39.71;100014.72;4958571;28;20523;-70
2021/12/09 03:14:49;;;;;;;42.88;40.58;;;;;;;19.41;39.53;100015.84;4959328;28;20027;-70
2021/12/09 03:17:16;;;;;;;43.80;41.47;;;;;;;19.40;39.75;100017.78;4959215;28;20023;-70
2021/12/09 03:19:42;;;;;;;42.40;40.30;;;;;;;19.39;39.63;100016.16;4959312;28;20519;-70
2021/12/09 03:22:08;;;;;;;42.70;40.65;;;;;;;19.40;39.80;100019.72;4959438;29;20032;-70
2021/12/09 03:24:33;;;;;;;41.83;39.55;;;;;;;19.39;39.89;100023.59;4959123;28;20087;-70
2021/12/09 03:26:59;;;;;;;41.63;39.42;;;;;;;19.39;39.76;100026.31;4959072;28;20066;-70
2021/12/09 03:29:26;;;;;;;42.78;40.67;;;;;;;19.38;39.73;100028.25;4942419;29;20032;-70
2021/12/09 03:31:55;;;;;;;40.97;38.88;;;;;;;19.36;39.72;100019.56;4959865;29;20027;-70
2021/12/09 03:34:22;;;;;;;;;;;;;;;19.33;39.73;100025.66;4959060;29;20476;-70
2021/12/09 03:36:49;;;;;;;41.80;39.70;;;;;;;19.34;39.69;100021.00;4941731;29;20251;-70
2021/12/09 03:39:18;;;;;;;42.30;40.10;;;;;;;19.32;39.34;100026.78;4958967;29;20023;-70
2021/12/09 03:41:47;;;;;;;43.40;41.20;;;;;;;19.32;39.81;100031.47;4958395;29;20666;-69
2021/12/09 03:44:13;;;;;;;42.97;40.80;;;;;;;19.32;39.68;100037.72;4959021;29;20440;-70
2021/12/09 03:46:39;;;;;;;42.70;40.65;;;;;;;19.30;39.67;100034.50;4958772;29;20027;-70
2021/12/09 03:49:05;;;;;;;41.95;39.90;;;;;;;19.30;39.80;100039.97;4958524;28;20357;-70
2021/12/09 03:51:32;;;;;;;42.10;40.00;;;;;;;19.30;39.78;100028.22;4958682;29;20052;-70
2021/12/09 03:53:57;;;;;;;43.47;41.38;;;;;;;19.30;39.82;100042.72;4958724;28;20023;-70
2021/12/09 03:56:23;;;;;;;43.03;40.83;;;;;;;19.29;39.58;100034.84;4958318;29;20047;-70
2021/12/09 03:58:48;;;;;;;41.92;39.75;;;;;;;19.29;39.68;100037.56;4958296;29;20057;-70
2021/12/09 04:01:14;;;;;;;43.25;41.10;;;;;;;19.27;39.59;100037.88;4958756;28;20034;-70
2021/12/09 04:03:39;;;;;;;43.00;40.70;;;;;;;19.27;39.70;100045.28;4958522;28;20046;-70
2021/12/09 04:06:04;;;;;;;41.78;39.78;;;;;;;19.26;39.73;100038.22;4958663;29;20063;-70
2021/12/09 04:08:30;;;;;;;44.42;42.13;;;;;;;19.25;39.72;100040.13;4958422;29;20053;-70
2021/12/09 04:10:56;;;;;;;41.28;39.17;;;;;;;19.26;39.66;100041.75;4958943;28;20031;-70
2021/12/09 04:13:21;;;;;;;41.72;39.63;;;;;;;19.23;39.79;100037.72;4958282;29;20027;-70
2021/12/09 04:15:47;;;;;;;42.05;39.85;;;;;;;19.24;39.50;100033.06;4958259;29;20522;-70
2021/12/09 04:18:12;;;;;;;41.35;39.25;;;;;;;19.22;39.89;100033.34;4958224;28;20043;-70
2021/12/09 04:20:38;;;;;;;41.85;39.65;;;;;;;19.23;39.58;100031.44;4958170;28;20027;-70
2021/12/09 04:23:05;;;;;;;42.65;40.55;;;;;;;19.22;39.69;100029.81;4957502;28;20094;-69
2021/12/09 04:25:31;;;;;;;42.20;40.00;;;;;;;19.21;39.71;100031.75;4958230;29;20027;-70
2021/12/09 04:27:57;;;;;;;43.47;41.20;;;;;;;19.20;39.60;100032.88;4958008;28;20031;-70
2021/12/09 04:30:24;;;;;;;43.95;41.65;;;;;;;19.20;39.77;100034.78;4957920;29;20062;-70
2021/12/09 04:32:53;;;;;;;42.83;40.72;;;;;;;19.20;39.54;100043.00;4958410;29;20032;-70
2021/12/09 04:35:20;;;;;;;42.55;40.33;;;;;;;19.18;39.80;100037.88;4957571;29;20062;-70
2021/12/09 04:37:47;;;;;;;41.38;39.22;;;;;;;19.17;39.74;100044.44;4957918;29;20468;-70
2021/12/09 04:40:14;;;;;;;41.45;39.35;;;;;;;19.17;39.71;100038.19;4957795;28;20460;-70
2021/12/09 04:42:40;;;;;;;40.95;38.85;;;;;;;19.17;39.78;100043.66;4956487;29;20404;-70
2021/12/09 04:45:07;;;;;;;42.10;40.05;;;;;;;19.16;39.67;100042.06;4958107;29;20159;-70
2021/12/09 04:47:33;;;;;;;43.78;41.53;;;;;;;19.16;39.85;100042.06;4957590;29;20027;-70
2021/12/09 04:49:58;;;;;;;41.88;39.72;;;;;;;19.15;39.73;100041.25;4957503;28;20038;-70
2021/12/09 04:52:24;;;;;;;42.80;40.70;;;;;;;19.15;39.68;100046.72;4957662;28;20039;-70
2021/12/09 04:54:49;;;;;;;41.22;39.22;;;;;;;19.14;39.69;100052.50;4958136;28;20054;-70
2021/12/09 04:57:15;;;;;;;41.08;39.08;;;;;;;19.13;39.75;100035.28;4957799;29;20399;-69
2021/12/09 04:59:41;;;;;;;43.67;41.45;;;;;;;19.13;39.82;100039.94;4957407;28;20428;-70
2021/12/09 05:02:12;;;;;;;42.20;40.10;;;;;;;19.11;39.70;100040.25;4957460;29;20340;-70
2021/12/09 05:04:37;;;;;;;42.53;40.33;;;;;;;19.11;39.63;100039.47;4958076;29;20086;-70
2021/12/09 05:07:03;;;;;;;41.50;39.40;;;;;;;19.10;39.60;100033.19;4957304;29;20039;-70
2021/12/09 05:09:29;;;;;;;41.90;39.65;;;;;;;19.10;39.69;100037.81;4957301;29;20454;-70
2021/12/09 05:11:55;;;;;;;40.70;38.60;;;;;;;19.09;39.62;100045.25;4957472;28;20066;-70
2021/12/09 05:14:21;;;;;;;40.83;38.58;;;;;;;19.08;39.60;100043.63;4957470;29;20055;-71
2021/12/09 05:16:52;;;;;;;41.95;39.65;;;;;;;19.07;39.72;100055.69;4957162;28;20035;-70
2021/12/09 05:19:19;;;;;;;40.63;38.67;;;;;;;19.08;39.62;100056.53;4957426;29;20030;-70
2021/12/09 05:21:45;;;;;;;40.17;37.97;;;;;;;19.07;39.81;100066.63;4956809;29;20039;-70
2021/12/09 05:24:13;;;;;;;41.75;39.60;;;;;;;19.07;40.08;100069.38;4957561;29;20032;-70
2021/12/09 05:26:45;;;;;;;41.90;39.70;;;;;;;19.06;39.67;100070.50;4956836;29;20432;-70
2021/12/09 05:29:11;;;;;;;41.00;38.78;;;;;;;19.05;39.80;100071.66;4957511;29;20297;-70
2021/12/09 05:34:22;;;;;;;42.47;40.38;;;;;;;19.05;39.73;100079.03;4956217;28;20094;-72
2021/12/09 05:36:47;;;;;;;39.83;37.88;;;;;;;19.03;39.74;100084.84;4956723;28;20027;-72
2021/12/09 05:39:14;;;;;;;39.85;37.95;;;;;;;19.03;40.14;100088.38;4956723;29;20348;-72
2021/12/09 05:41:39;;;;;;;41.30;39.20;;;;;;;19.02;39.61;100085.94;4956705;29;20023;-72
2021/12/09 05:44:06;;;;;;;41.00;38.85;;;;;;;19.02;39.62;100085.94;4956723;28;20031;-70
2021/12/09 05:46:34;;;;;;;41.35;39.33;;;;;;;19.01;39.77;100084.34;4954999;28;20031;-70
2021/12/09 05:48:59;;;;;;;42.22;40.13;;;;;;;18.99;39.50;100084.63;4956357;29;20038;-71
2021/12/09 05:51:25;;;;;;;41.83;39.72;;;;;;;18.99;39.76;100076.44;4956973;29;20110;-71
2021/12/09 05:53:52;;;;;;;41.10;39.00;;;;;;;18.99;39.77;100076.44;4956520;29;20087;-70
2021/12/09 05:56:18;;;;;;;41.50;39.40;;;;;;;18.98;39.66;100069.34;4956297;28;20051;-71
2021/12/09 05:58:45;;;;;;;43.55;41.25;;;;;;;18.97;39.71;100066.91;4956988;28;20039;-70
2021/12/09 06:01:10;;;;;;;41.03;38.92;;;;;;;18.97;39.78;100061.44;4956024;29;20435;-70
2021/12/09 06:03:36;;;;;;;43.97;41.42;;;;;;;18.96;39.68;100063.38;4955005;29;20124;-70
2021/12/09 06:06:02;;;;;;;41.92;39.83;;;;;;;18.95;39.80;100064.50;4956204;28;20030;-70
2021/12/09 06:08:28;;;;;;;42.40;40.30;;;;;;;18.95;39.79;100052.75;4956213;28;20027;-70
2021/12/09 06:10:53;;;;;;;42.47;40.38;;;;;;;18.93;39.79;100055.00;4956426;28;20074;-70
2021/12/09 06:13:19;;;;;;;42.00;39.90;;;;;;;18.93;39.61;100060.47;4956709;28;20035;-70
2021/12/09 06:15:45;;;;;;;42.30;40.10;;;;;;;18.92;39.62;100067.88;4955855;29;20071;-72
2021/12/09 06:18:10;;;;;;;41.50;39.40;;;;;;;18.92;39.87;100058.84;4955859;28;20069;-71
2021/12/09 06:20:36;;;;;;;42.53;40.42;;;;;;;18.92;39.81;100064.31;4956183;29;20114;-70
2021/12/09 06:23:01;;;;;;;41.45;39.45;;;;;;;18.91;39.76;100068.19;4955956;29;20019;-70
2021/12/09 06:25:27;;;;;;;41.70;39.60;;;;;;;18.90;40.03;100077.50;4955955;29;20035;-71
2021/12/09 06:27:54;;;;;;;41.72;39.58;;;;;;;18.90;39.98;100081.06;4955731;29;20035;-71
2021/12/09 06:30:20;;;;;;;41.35;39.28;;;;;;;18.88;39.66;100080.56;4955793;29;20027;-70
2021/12/09 06:32:46;;;;;;;42.80;40.70;;;;;;;18.88;39.65;100087.97;4956086;29;20042;-70
2021/12/09 06:35:12;;;;;;;42.28;40.17;;;;;;;18.87;39.70;100086.34;4955783;29;20027;-70
2021/12/09 06:37:40;;;;;;;43.40;41.20;;;;;;;18.88;39.78;100087.97;4955637;29;20530;-70
2021/12/09 06:40:08;;;;;;;40.22;38.10;;;;;;;18.86;39.73;100085.56;4955667;28;20472;-71
2021/12/09 06:42:34;;;;;;;41.72;39.38;;;;;;;18.85;39.84;100086.69;4955708;29;20379;-70
2021/12/09 06:44:59;;;;;;;40.60;38.50;;;;;;;18.85;39.81;100085.84;4954274;29;20463;-71
2021/12/09 06:47:25;;;;;;;41.60;39.40;;;;;;;18.85;39.87;100083.13;4955500;28;20534;-71
2021/12/09 06:49:50;;;;;;;40.75;38.72;;;;;;;18.84;39.73;100081.50;4955583;28;20030;-72
2021/12/09 06:52:16;;;;;;;41.97;39.88;;;;;;;18.83;39.77;100083.44;4955584;28;20184;-72
2021/12/09 06:54:42;;;;;;;43.05;40.80;;;;;;;18.83;39.88;100077.97;4955438;29;20027;-72
2021/12/09 06:57:08;;;;;;;41.65;39.63;;;;;;;18.81;39.68;100083.75;4955646;29;20058;-69
2021/12/09 06:59:33;;;;;;;41.80;39.78;;;;;;;18.81;39.92;100078.28;4955427;29;20036;-70
2021/12/09 07:01:59;;;;;;;41.47;39.42;;;;;;;18.81;39.82;100091.16;4938348;29;20028;-72
2021/12/09 07:04:25;;;;;;;40.72;38.42;;;;;;;18.81;39.94;100082.94;4955379;28;20439;-69
2021/12/09 07:06:50;;;;;;;43.28;41.03;;;;;;;18.80;39.94;100086.81;4955278;29;20471;-69
2021/12/09 07:09:16;;;;;;;41.58;39.58;;;;;;;18.79;40.06;100088.72;4955123;29;20037;-69
2021/12/09 07:11:49;;;;;;;42.05;39.92;;;;;;;18.78;39.71;100089.84;4955310;29;20456;-72
2021/12/09 07:14:15;;;;;;;40.58;38.58;;;;;;;18.78;39.96;100097.25;4955622;29;20082;-71
2021/12/09 07:16:41;;;;;;;41.63;39.45;;;;;;;18.78;39.91;100091.78;4955254;29;20027;-72
2021/12/09 07:19:06;;;;;;;40.88;38.88;;;;;;;18.77;40.05;100091.00;4955355;29;20027;-72
2021/12/09 07:21:31;;;;;;;40.85;38.85;;;;;;;18.78;40.21;100086.31;4954113;29;20028;-71
2021/12/09 07:23:57;;;;;;;40.15;38.22;;;;;;;18.77;39.87;100090.16;4955151;29;20523;-71
2021/12/09 07:26:22;;;;;;;40.78;38.42;;;;;;;18.76;40.01;100089.34;4955675;28;20039;-75
2021/12/09 07:28:47;;;;;;;41.85;39.65;;;;;;;18.77;40.61;100091.00;4955200;28;20038;-75
2021/12/09 07:31:14;;;;;;;42.47;39.72;;;;;;;18.80;40.87;100095.03;4954448;29;20110;-77
2021/12/09 07:33:39;;;;;;;44.20;40.53;;;;;;;18.81;41.13;100086.50;4955622;28;20478;-73
2021/12/09 07:36:05;;;;;;;40.80;37.80;;;;;;;18.83;41.19;100090.84;4938295;29;20039;-77
2021/12/09 07:38:31;;;;;;;40.88;38.17;;;;;;;18.83;41.07;100093.59;4938192;29;20065;-72
2021/12/09 07:40:56;;;;;;;39.92;37.83;;;;;;;18.83;41.55;100101.81;4954810;28;20050;-73
2021/12/09 07:43:22;;;;;;;41.63;38.90;;;;;;;18.83;41.41;100105.34;4938307;29;20032;-73
2021/12/09 07:45:47;;;;;;;42.70;40.22;;;;;;;18.84;41.43;100104.22;4937722;29;20484;-71
2021/12/09 07:48:12;;;;;;;40.97;38.60;;;;;;;18.85;41.51;100113.22;4955071;28;20043;-72
2021/12/09 07:50:38;;;;;;;41.45;39.08;;;;;;;18.87;41.21;100119.19;4954665;29;20023;-72
2021/12/09 07:53:04;;;;;;;41.00;38.22;;;;;;;18.89;41.54;100119.69;4954677;29;20428;-72
2021/12/09 07:55:30;;;;;;;42.33;39.78;;;;;;;18.91;41.36;100121.00;4954663;28;20495;-75
2021/12/09 07:57:56;;;;;;;42.80;40.20;;;;;;;18.95;41.22;100126.63;4955858;28;20502;-72
2021/12/09 08:00:25;;;;;;;40.80;38.63;;;;;;;18.97;41.33;100130.66;4958265;29;20046;-72
2021/12/09 08:02:52;;;;;;;42.88;40.45;;;;;;;19.00;41.42;100121.84;4958085;29;20437;-72
2021/12/09 08:05:19;;;;;;;40.47;37.92;;;;;;;19.04;40.95;100119.28;4958169;29;20041;-72
2021/12/09 08:07:45;;;;;;;41.35;39.20;;;;;;;19.07;41.02;100121.38;4957008;29;20038;-73
2021/12/09 08:10:12;;;;;;;41.15;38.85;;;;;;;19.10;40.91;100129.00;4958083;29;20039;-72
2021/12/09 08:12:38;;;;;;;42.17;39.97;;;;;;;19.14;41.08;100132.69;4941056;29;20431;-71
2021/12/09 08:15:06;;;;;;;42.13;39.92;;;;;;;19.17;41.16;100128.53;4957280;29;20039;-73
2021/12/09 08:20:16;;;;;;;42.47;40.28;;;;;;;19.25;41.09;100138.69;4958079;29;20040;-73
2021/12/09 08:22:43;;;;;;;43.80;41.50;;;;;;;19.28;40.95;100132.63;4957859;29;20061;-73
2021/12/09 08:25:13;;;;;;;41.53;39.42;;;;;;;19.33;41.04;100131.66;4957607;29;20042;-77
2021/12/09 08:27:40;;;;;;;43.45;41.17;;;;;;;19.39;41.19;100131.19;4957218;29;20111;-79
2021/12/09 08:30:07;;;;;;;43.65;41.35;;;;;;;19.45;40.96;100135.41;4957612;29;20139;-75
2021/12/09 08:32:33;;;;;;;44.63;42.33;;;;;;;19.51;40.84;100136.06;4957360;28;20129;-76
2021/12/09 08:34:59;;;;;;;43.83;41.53;;;;;;;19.57;40.74;100142.22;4956811;29;20035;-77
2021/12/09 08:37:25;;;;;;;43.75;41.42;;;;;;;19.62;40.31;100142.88;4957052;28;20496;-75
2021/12/09 08:39:50;;;;;;;46.42;44.03;;;;;;;19.67;40.56;100139.19;4956758;29;20399;-75
2021/12/09 08:42:17;;;;;;;44.05;41.75;;;;;;;19.71;40.38;100137.47;4940238;29;20043;-75
2021/12/09 08:44:43;;;;;;;45.72;43.10;;;;;;;19.75;40.12;100146.63;4957158;29;20035;-77
2021/12/09 08:47:09;;;;;;;45.25;42.47;;;;;;;19.78;39.92;100148.75;4939904;29;20035;-76
2021/12/09 08:49:34;;;;;;;44.97;42.63;;;;;;;19.78;39.98;100146.03;4939979;29;20036;-77
2021/12/09 08:52:00;;;;;;;46.83;44.33;;;;;;;19.79;39.92;100146.81;4957072;29;20038;-76
2021/12/09 08:54:26;;;;;;;44.78;42.47;;;;;;;19.80;40.02;100149.22;4957225;29;20042;-79
2021/12/09 08:56:52;;;;;;;46.25;43.90;;;;;;;19.83;39.77;100158.75;4956903;29;20428;-77
2021/12/09 08:59:22;;;;;;;45.13;42.63;;;;;;;19.87;39.73;100146.81;4956986;28;20027;-79
2021/12/09 09:01:48;;;;;;;47.20;44.75;;;;;;;19.91;39.60;100146.19;4957089;29;20115;-78
2021/12/09 09:04:14;;;;;;;64.60;59.30;;;;;;;19.94;40.06;100151.03;4957068;29;20059;-77
2021/12/09 09:06:54;;;;;;;45.40;43.00;;;;;;;19.97;39.56;100153.94;4955534;29;20070;-78
2021/12/09 09:09:20;;;;;;;42.22;40.03;;;;;;;19.99;39.51;100154.44;4956743;28;20042;-82
2021/12/09 09:11:46;;;;;;;42.95;40.80;;;;;;;20.02;39.35;100145.56;4956796;29;20097;-81
2021/12/09 09:14:12;;;;;;;42.15;40.15;;;;;;;20.08;39.24;100146.22;4955790;28;20094;-75
2021/12/09 09:16:38;;;;;;;44.78;42.47;;;;;;;20.12;39.22;100149.94;4957030;29;20035;-83
2021/12/09 09:19:04;;;;;;;47.55;45.15;;;;;;;20.14;39.26;100152.38;4939550;29;20062;-79
2021/12/09 09:21:31;;;;;;;44.28;42.13;;;;;;;20.13;38.77;100151.53;4954958;29;20046;-77
2021/12/09 09:23:56;;;;;;;46.40;44.10;;;;;;;20.15;38.86;100165.72;4956484;29;20547;-78
2021/12/09 09:26:22;;;;;;;46.22;43.78;;;;;;;20.16;38.96;100161.06;4956496;28;20094;-75
2021/12/09 09:28:47;;;;;;;46.38;44.10;;;;;;;20.16;38.75;100161.06;4939209;29;20110;-73
2021/12/09 09:31:13;;;;;;;48.58;45.97;;;;;;;20.16;38.66;100163.78;4956230;29;20476;-75
2021/12/09 09:33:39;;;;;;;51.88;49.28;;;;;;;20.16;39.02;100164.63;4939257;29;20043;-77
2021/12/09 09:36:05;;;;;;;52.40;49.65;;;;;;;20.17;38.73;100158.00;4956342;29;20480;-75
2021/12/09 09:38:30;;;;;;;51.28;48.45;;;;;;;20.19;38.84;100161.22;4956269;28;20031;-75
2021/12/09 09:41:06;;;;;;;52.72;50.03;;;;;;;20.19;38.78;100155.75;4956069;29;20066;-75
2021/12/09 09:43:55;;;;;;;53.97;50.33;;;;;;;20.18;38.65;100158.81;4956094;29;20035;-76
2021/12/09 09:46:23;;;;;;;53.67;50.70;;;;;;;20.15;38.14;100160.25;4956201;29;20102;-74
2021/12/09 09:48:49;;;;;;;;;;;;;;;20.12;38.58;100160.91;4956666;29;20391;-73
2021/12/09 09:51:19;;;;;;;52.20;49.38;;;;;;;20.10;38.09;100154.94;4956212;29;19910;-73
2021/12/09 09:53:46;;;;;;;54.03;51.25;;;;;;;20.08;38.22;100155.25;4955989;28;20074;-74
2021/12/09 09:56:16;;;;;;;54.20;51.30;;;;;;;20.07;38.29;100153.63;4956455;28;20078;-74
2021/12/09 09:58:44;;;;;;;55.30;52.42;;;;;;;20.06;38.07;100164.94;4956017;29;20028;-73
2021/12/09 10:01:10;;;;;;;54.58;51.65;;;;;;;20.05;38.00;100152.34;4956044;29;20491;-74
2021/12/09 10:03:44;;;;;;;56.30;53.25;;;;;;;20.04;38.39;100156.22;4956089;29;20036;-74
2021/12/09 10:06:10;;;;;;;57.97;54.78;;;;;;;20.03;38.11;100160.06;4938835;29;20404;-74
2021/12/09 10:08:36;;;;;;;59.95;56.95;;;;;;;20.02;38.08;100155.72;4956017;29;20110;-74
2021/12/09 10:11:02;;;;;;;59.95;56.92;;;;;;;20.01;38.15;100154.94;4956027;29;20031;-74
2021/12/09 10:13:34;;;;;;;61.05;57.95;;;;;;;20.00;38.23;100153.28;4955847;29;20035;-74
2021/12/09 10:16:01;;;;;;;60.67;57.47;;;;;;;19.99;37.75;100156.38;4955810;29;20472;-74
2021/12/09 10:18:45;;;;;;;64.10;61.00;;;;;;;19.99;37.68;100162.66;4955528;28;20039;-74
2021/12/09 10:21:30;;;;;;;63.65;60.42;;;;;;;19.98;37.75;100161.06;4937559;29;20514;-74
2021/12/09 10:24:04;;;;;;;57.08;54.17;;;;;;;19.98;37.74;100158.31;4955823;29;20133;-74
2021/12/09 10:26:39;;;;;;;56.50;53.70;;;;;;;19.97;37.63;100161.38;4954752;29;20366;-74
2021/12/09 10:29:09;;;;;;;55.38;52.33;;;;;;;19.97;37.83;100153.13;4956058;29;20032;-74
2021/12/09 10:31:48;;;;;;;57.40;54.50;;;;;;;19.96;37.83;100159.72;4955496;28;20035;-73
2021/12/09 10:34:31;;;;;;;55.53;52.75;;;;;;;19.95;37.63;100158.13;4955693;29;20035;-74
2021/12/09 10:37:05;;;;;;;53.70;50.90;;;;;;;19.95;37.82;100155.38;4955474;29;20078;-74
2021/12/09 10:39:50;;;;;;;55.72;52.83;;;;;;;19.94;37.73;100149.09;4955472;29;20086;-73
2021/12/09 10:42:18;;;;;;;56.15;53.03;;;;;;;19.93;37.95;100152.94;4956136;29;20030;-74
2021/12/09 10:44:50;;;;;;;55.28;52.42;;;;;;;19.93;37.68;100147.47;4955646;28;20134;-73
2021/12/09 10:47:34;;;;;;;59.97;56.88;;;;;;;19.92;37.77;100148.59;4955853;29;20027;-73
2021/12/09 10:50:11;;;;;;;55.67;52.90;;;;;;;19.91;37.45;100143.44;4955477;29;20456;-73
2021/12/09 10:52:43;;;;;;;54.58;51.78;;;;;;;19.89;37.71;100141.84;4954264;29;20036;-73
2021/12/09 10:55:10;;;;;;;52.65;49.95;;;;;;;19.90;37.69;100142.63;4955366;29;20114;-73
2021/12/09 10:57:35;;;;;;;53.45;50.33;;;;;;;19.90;37.79;100148.13;4955157;28;20054;-73
2021/12/09 11:00:16;;;;;;;55.13;52.33;;;;;;;19.91;37.74;100143.44;4938244;29;20086;-73
2021/12/09 11:03:06;;;;;;;53.25;50.55;;;;;;;19.89;37.52;100139.09;4955086;29;20019;-73
2021/12/09 11:05:35;;;;;;;54.75;51.85;;;;;;;19.92;37.89;100139.59;4954707;29;20042;-77
2021/12/09 11:08:38;;;;;;;56.15;53.15;;;;;;;19.95;38.31;100144.41;4955129;28;20057;-75
2021/12/09 11:11:16;;;;;;;58.05;55.00;;;;;;;20.00;38.82;100142.31;4948389;29;20043;-72
2021/12/09 11:13:49;;;;;;;;;;;;;;;20.11;39.22;100140.09;4955297;29;20067;-74
2021/12/09 11:16:26;;;;;;;;;;;;;;;20.28;39.00;100139.28;4955702;29;19911;-75
2021/12/09 11:18:53;;;;;;;;;;;;;;;20.38;38.90;100147.19;4955333;29;20375;-75